Overview Statistics Trail Chart Weather Telemetry Raw packets
 

This is the latest recevied weather packets stored in our database for station/object KI4KWR-1. If no packets are shown the sender has not sent any weather packets the latest 10 day(s).

<< 26 27 28 29 30 31 32 >>
Time Temp. Humidity Pressure Rain* Wind** Luminosity Snow
1788006604 20.56° C 85% 990.2 hPa 0 mm - - -
1788005703 20° C 88% 990.2 hPa 0 mm - - -
1788004803 18.89° C 90% 990 hPa 0 mm - - -
1788003904 18.33° C 90% 989.9 hPa 0 mm - - -
1788003004 18.33° C 90% 989.8 hPa 0 mm - - -
1788002104 18.33° C 90% 989.7 hPa 0 mm - - -
1788001205 18.33° C 88% 989.5 hPa 0 mm - - -
1788000304 18.89° C 88% 989.6 hPa 0 mm - - -
1787999403 18.89° C 88% 989.5 hPa 0 mm - - -
1787998503 18.89° C 87% 989.5 hPa 0 mm - - -
1787997603 18.89° C 88% 989.5 hPa 0 mm - - -
1787996704 18.89° C 88% 989.3 hPa 0 mm - - -
1787995804 18.89° C 88% 989.2 hPa 0 mm - - -
1787994904 18.89° C 88% 989.1 hPa 0 mm - - -
1787994004 19.44° C 88% 989.1 hPa 0 mm - - -
1787993104 18.89° C 87% 989 hPa 0 mm - - -
1787992204 19.44° C 86% 989 hPa 0 mm - - -
1787991303 19.44° C 87% 988.8 hPa 0 mm - - -
1787990404 19.44° C 87% 988.8 hPa 0 mm - - -
1787989503 19.44° C 87% 988.7 hPa 0 mm - - -
1787988604 20° C 85% 988.8 hPa 0 mm - - -
1787987703 20° C 83% 988.8 hPa 0 mm - - -
1787986804 20.56° C 81% 988.9 hPa 0 mm - - -
1787985904 20.56° C 80% 988.9 hPa 0 mm - - -
1787985004 20.56° C 80% 989 hPa 0 mm - - -

* Rain latest hour (hover to see other rain measurements)
** Current wind speed in m/s (hover to see current wind gust speed)